Dialion, Arkansas
Current Conditions -  °F | °C
As of 11:53 AM on Thursday 30 Oct 2014 (Local Time) from KPBF Reporting Station
Clear Clear  
Wind Chill: 67°   Ceiling: Unl
Heat Index: 67°   Visibility: 10mi
Dew Point: 49°   Wind: 3mph
Humidity: 52%   Direction: 160°SSE
Pressure: 30.15"   Gusts: NA
Location:  33.947°N, 92.1633°W
Report Text: KPBF 301653Z AUTO 16003KT 10SM CLR 19/09 A3015 RMK AO2 SLP209 T01940094
Loading
Personal Weather Stations






























Interactive Weather Map
Tropical Storm Tracking
New forecast layout! Learn more

10-Day Weather Forecast

Advertisements
Track Severe Weather on mobile